Time;durP1;ratioP1;P1;durP2;ratioP2;P2;SDS_P1;SDS_P2;PMS_P1;PMS_P2;Temp;Humidity;BMP_temperature;BMP_pressure;BME280_temperature;BME280_humidity;BME280_pressure;Samples;Min_cycle;Max_cycle;Signal;HPM_P1;HPM_P2
2021/07/30 00:00:30;;;;;;;16.37;12.10;;;;;;;17.98;76.79;98563.38;124639;1093;64389;-78
2021/07/30 00:03:17;;;;;;;14.80;11.30;;;;;;;17.94;76.85;98553.94;124683;1093;64442;-78
2021/07/30 00:05:44;;;;;;;13.77;11.43;;;;;;;17.91;76.94;98549.70;124683;1093;64312;-78
2021/07/30 00:08:11;;;;;;;16.23;11.40;;;;;;;17.90;76.87;98553.39;124693;1094;64249;-78
2021/07/30 00:10:38;;;;;;;15.63;11.97;;;;;;;17.87;77.02;98547.48;124686;1093;64214;-78
2021/07/30 00:13:06;;;;;;;13.27;11.00;;;;;;;17.81;77.05;98548.97;124680;1093;64303;-78
2021/07/30 00:15:33;;;;;;;13.50;11.40;;;;;;;17.77;77.22;98550.25;124648;1093;64411;-78
2021/07/30 00:18:00;;;;;;;12.30;10.70;;;;;;;17.72;77.49;98547.19;124666;1093;64290;-78
2021/07/30 00:20:27;;;;;;;11.20;9.60;;;;;;;17.69;77.05;98551.08;124706;1093;64191;-78
2021/07/30 00:22:54;;;;;;;11.77;10.47;;;;;;;17.67;77.34;98554.94;124780;1093;64343;-78
2021/07/30 00:25:21;;;;;;;11.77;9.80;;;;;;;17.64;77.19;98548.01;124655;1093;64293;-78
2021/07/30 00:27:48;;;;;;;11.90;10.23;;;;;;;17.61;77.59;98555.55;124763;1093;64395;-78
2021/07/30 00:30:16;;;;;;;11.27;10.10;;;;;;;17.58;77.44;98555.86;124683;1093;64290;-78
2021/07/30 00:32:43;;;;;;;12.37;10.27;;;;;;;17.53;77.72;98549.09;124664;1093;64248;-78
2021/07/30 00:35:10;;;;;;;12.77;10.30;;;;;;;17.47;77.86;98551.58;124668;1093;64282;-78
2021/07/30 00:37:38;;;;;;;13.67;10.27;;;;;;;17.40;78.10;98555.90;124669;1093;64296;-78
2021/07/30 00:40:06;;;;;;;12.70;9.73;;;;;;;17.33;77.72;98548.45;124815;1093;64380;-78
2021/07/30 00:42:33;;;;;;;12.60;11.10;;;;;;;17.29;78.14;98559.69;124651;1093;64319;-78
2021/07/30 00:45:02;;;;;;;12.30;10.90;;;;;;;17.27;78.41;98554.48;124666;1093;64254;-78
2021/07/30 00:47:31;;;;;;;11.53;10.33;;;;;;;17.28;78.41;98556.16;124716;1093;64248;-78
2021/07/30 00:49:59;;;;;;;12.70;10.40;;;;;;;17.27;78.54;98559.86;124735;1093;64350;-78
2021/07/30 00:52:27;;;;;;;13.73;11.13;;;;;;;17.25;78.36;98561.02;124715;1093;64339;-78
2021/07/30 00:54:55;;;;;;;13.23;10.23;;;;;;;17.24;78.71;98553.92;124759;1093;64293;-78
2021/07/30 00:57:23;;;;;;;13.30;11.90;;;;;;;17.22;78.87;98550.53;124636;1093;64231;-78
2021/07/30 00:59:51;;;;;;;13.23;10.70;;;;;;;17.20;78.94;98552.56;124702;1094;64276;-78
2021/07/30 01:02:19;;;;;;;12.03;10.10;;;;;;;17.18;78.83;98551.86;124781;1093;64194;-78
2021/07/30 01:04:46;;;;;;;12.00;10.20;;;;;;;17.15;79.27;98553.02;124677;1093;64377;-78
2021/07/30 01:07:13;;;;;;;12.77;11.37;;;;;;;17.14;79.48;98550.47;124716;1093;64287;-78
2021/07/30 01:09:41;;;;;;;13.93;10.63;;;;;;;17.16;79.38;98551.17;124656;1093;64300;-78
2021/07/30 01:12:11;;;;;;;13.00;10.35;;;;;;;17.14;79.73;98550.47;124699;1093;64248;-78
2021/07/30 01:14:38;;;;;;;11.95;10.83;;;;;;;17.13;79.58;98548.79;124788;1093;64266;-79
2021/07/30 01:17:05;;;;;;;12.57;10.93;;;;;;;17.10;80.06;98548.09;124747;1093;64389;-78
2021/07/30 01:19:32;;;;;;;13.10;11.17;;;;;;;17.08;79.62;98557.33;124792;1093;64288;-79
2021/07/30 01:22:07;;;;;;;13.53;11.03;;;;;;;17.07;79.89;98555.64;124780;1093;64211;-79
2021/07/30 01:24:34;;;;;;;12.13;10.83;;;;;;;17.05;80.00;98561.17;124720;1093;64231;-78
2021/07/30 01:27:02;;;;;;;12.05;10.85;;;;;;;17.04;80.46;98559.48;124680;1093;64431;-78
2021/07/30 01:29:29;;;;;;;13.33;11.10;;;;;;;17.03;80.16;98544.31;124794;1093;64730;-79
2021/07/30 01:31:57;;;;;;;11.30;10.10;;;;;;;17.07;80.38;98551.09;124661;1093;64279;-78
2021/07/30 01:34:24;;;;;;;13.10;10.90;;;;;;;17.09;80.45;98551.80;124703;1093;64300;-78
2021/07/30 01:36:52;;;;;;;11.50;10.27;;;;;;;17.11;80.76;98540.86;124717;1093;64293;-78
2021/07/30 01:39:19;;;;;;;13.67;10.67;;;;;;;17.09;80.47;98541.03;124870;1093;64418;-79
2021/07/30 01:41:46;;;;;;;11.97;10.73;;;;;;;17.06;80.58;98548.55;124662;1093;64418;-78
2021/07/30 01:44:14;;;;;;;12.40;11.30;;;;;;;17.01;80.73;98545.47;124676;1093;64296;-78
2021/07/30 01:46:42;;;;;;;16.83;10.90;;;;;;;16.97;80.77;98544.95;124673;1093;64299;-78
2021/07/30 01:49:09;;;;;;;13.13;10.13;;;;;;;16.97;81.01;98546.80;124651;1092;64393;-78
2021/07/30 01:51:36;;;;;;;12.45;11.10;;;;;;;16.99;81.23;98545.64;124647;1093;64275;-78
2021/07/30 01:54:04;;;;;;;14.97;11.33;;;;;;;16.98;81.41;98545.78;124783;1092;64327;-78
2021/07/30 01:56:31;;;;;;;14.10;11.93;;;;;;;16.95;81.04;98549.63;124672;1093;64274;-78
2021/07/30 01:58:59;;;;;;;12.87;11.57;;;;;;;16.93;80.98;98548.97;124675;1093;64244;-78
2021/07/30 02:01:26;;;;;;;13.03;11.70;;;;;;;16.93;81.56;98537.33;124710;1093;64296;-78
2021/07/30 02:03:53;;;;;;;14.25;11.75;;;;;;;16.90;81.50;98538.48;124634;1094;64306;-78
2021/07/30 02:06:20;;;;;;;12.13;9.83;;;;;;;16.92;81.50;98539.17;124701;1093;64337;-79
2021/07/30 02:08:47;;;;;;;11.80;10.17;;;;;;;16.89;81.69;98544.88;124778;1093;64287;-79
2021/07/30 02:11:15;;;;;;;12.33;11.03;;;;;;;16.84;81.52;98539.11;124734;1093;64274;-78
2021/07/30 02:16:28;;;;;;;13.20;11.73;;;;;;;16.85;81.63;98538.09;124680;1093;64198;-79
2021/07/30 02:18:55;;;;;;;15.80;12.20;;;;;;;16.83;81.83;98538.27;124667;1093;64275;-79
2021/07/30 02:21:23;;;;;;;12.95;11.65;;;;;;;16.81;81.81;98540.26;124681;1093;64271;-79
2021/07/30 02:23:50;;;;;;;12.57;11.27;;;;;;;16.85;82.03;98530.89;124609;1093;64361;-79
2021/07/30 02:26:17;;;;;;;13.20;11.73;;;;;;;16.86;81.88;98534.42;124789;1093;64287;-79
2021/07/30 02:28:44;;;;;;;13.10;11.67;;;;;;;16.83;82.19;98540.12;124680;1093;64303;-79
2021/07/30 02:31:11;;;;;;;11.93;10.73;;;;;;;16.78;81.85;98534.34;124605;1092;64313;-79
2021/07/30 02:33:38;;;;;;;11.40;10.20;;;;;;;16.75;82.03;98534.63;124650;1093;64271;-79
2021/07/30 02:36:05;;;;;;;12.87;10.17;;;;;;;16.70;81.77;98537.77;124679;1093;64223;-79
2021/07/30 02:38:33;;;;;;;11.60;10.40;;;;;;;16.66;82.22;98531.83;124674;1093;64277;-79
2021/07/30 02:41:00;;;;;;;12.73;11.20;;;;;;;16.64;81.93;98530.28;124670;1093;64289;-79
2021/07/30 02:43:27;;;;;;;11.30;10.20;;;;;;;16.62;82.26;98526.92;124713;1093;64501;-79
2021/07/30 02:45:54;;;;;;;11.73;10.53;;;;;;;16.57;82.14;98526.53;124684;1093;64277;-79
2021/07/30 02:48:21;;;;;;;10.30;9.10;;;;;;;16.54;82.31;98526.84;124793;1093;64302;-79
2021/07/30 02:50:49;;;;;;;10.93;8.83;;;;;;;16.48;82.00;98530.96;124813;1093;64214;-79
2021/07/30 02:53:16;;;;;;;10.97;9.87;;;;;;;16.42;82.45;98523.51;124677;1093;64428;-79
2021/07/30 02:55:46;;;;;;;11.40;10.30;;;;;;;16.34;82.12;98526.95;124827;1093;64302;-79
2021/07/30 02:58:14;;;;;;;12.53;11.30;;;;;;;16.31;82.23;98531.80;124720;1093;64293;-79
2021/07/30 03:00:41;;;;;;;15.30;12.40;;;;;;;16.27;82.31;98539.30;124704;1093;64293;-79
2021/07/30 03:03:09;;;;;;;14.03;12.33;;;;;;;16.22;82.68;98536.23;124709;1093;64300;-79
2021/07/30 03:05:36;;;;;;;15.77;12.80;;;;;;;16.22;82.81;98533.55;124621;1093;64287;-79
2021/07/30 03:08:03;;;;;;;14.47;12.93;;;;;;;16.23;83.38;98537.92;124755;1093;64417;-79
2021/07/30 03:10:30;;;;;;;13.05;11.65;;;;;;;16.27;83.65;98541.14;124584;1093;64373;-79
2021/07/30 03:12:57;;;;;;;15.03;11.73;;;;;;;16.30;83.46;98538.15;124678;1093;64271;-79
2021/07/30 03:15:25;;;;;;;15.17;11.80;;;;;;;16.32;83.47;98545.07;124689;1093;64294;-79
2021/07/30 03:17:52;;;;;;;13.50;12.17;;;;;;;16.38;83.20;98540.96;124722;1093;64197;-79
2021/07/30 03:20:19;;;;;;;13.70;12.30;;;;;;;16.40;83.44;98542.50;124703;1093;64440;-79
2021/07/30 03:22:46;;;;;;;13.70;12.30;;;;;;;16.43;83.44;98546.73;124766;1093;64195;-79
2021/07/30 03:25:13;;;;;;;13.73;11.67;;;;;;;16.42;83.03;98545.86;124705;1093;64325;-79
2021/07/30 03:27:42;;;;;;;13.90;12.10;;;;;;;16.43;83.57;98554.80;124694;1092;64392;-79
2021/07/30 03:30:14;;;;;;;12.47;10.67;;;;;;;16.44;83.57;98557.33;124654;1092;64303;-79
2021/07/30 03:32:43;;;;;;;11.80;10.67;;;;;;;16.48;83.61;98557.02;124694;1093;64396;-79
2021/07/30 03:35:11;;;;;;;14.53;11.70;;;;;;;16.55;83.68;98553.58;124671;1093;64254;-79
2021/07/30 03:37:38;;;;;;;13.70;12.25;;;;;;;17.08;83.22;98550.09;124681;1093;64271;-79
2021/07/30 03:40:06;;;;;;;14.35;12.95;;;;;;;17.65;82.05;98549.69;124606;1093;64306;-79
2021/07/30 03:42:33;;;;;;;13.57;12.30;;;;;;;18.20;81.32;98556.59;124697;1093;64463;-79
2021/07/30 03:45:00;;;;;;;14.60;12.80;;;;;;;18.73;80.29;98559.97;124669;1093;64736;-79
2021/07/30 03:47:28;;;;;;;15.23;13.30;;;;;;;19.19;79.27;98557.69;124673;1092;64183;-79
2021/07/30 03:49:55;;;;;;;14.03;12.47;;;;;;;19.50;77.77;98550.58;124693;1093;64197;-79
2021/07/30 03:52:22;;;;;;;14.23;12.80;;;;;;;19.82;77.31;98546.16;124670;1093;64290;-79
2021/07/30 03:54:49;;;;;;;12.83;11.53;;;;;;;20.21;76.10;98555.36;124642;1093;64279;-79
2021/07/30 03:57:16;;;;;;;13.30;11.97;;;;;;;20.61;75.20;98554.34;124772;1093;64306;-79
2021/07/30 03:59:43;;;;;;;13.10;11.80;;;;;;;20.98;74.38;98556.31;124673;1093;64290;-79
2021/07/30 04:02:10;;;;;;;13.10;11.77;;;;;;;21.30;73.20;98551.70;124686;1093;64280;-80
2021/07/30 04:04:37;;;;;;;13.57;12.13;;;;;;;21.66;72.67;98551.88;124616;1093;64290;-79
2021/07/30 04:07:05;;;;;;;13.47;12.17;;;;;;;22.21;72.23;98551.68;124666;1093;64415;-79
2021/07/30 04:09:32;;;;;;;14.07;12.70;;;;;;;22.64;71.11;98558.06;124662;1093;64438;-80
2021/07/30 04:11:59;;;;;;;13.57;11.90;;;;;;;22.92;69.76;98554.63;124667;1093;64734;-80
2021/07/30 04:14:26;;;;;;;13.93;12.73;;;;;;;23.09;68.54;98549.80;124650;1093;64233;-80
2021/07/30 04:16:53;;;;;;;13.80;11.43;;;;;;;23.16;68.08;98550.72;124670;1092;64251;-80
2021/07/30 04:19:20;;;;;;;12.67;11.37;;;;;;;23.29;67.49;98555.45;124657;1093;64415;-80
2021/07/30 04:21:50;;;;;;;13.87;12.40;;;;;;;23.47;67.21;98549.55;124672;1093;64264;-80
2021/07/30 04:24:17;;;;;;;13.00;11.73;;;;;;;23.85;67.00;98550.90;124639;1093;64251;-80
2021/07/30 04:26:45;;;;;;;13.37;10.80;;;;;;;24.25;66.11;98545.72;124804;1093;64269;-80
2021/07/30 04:29:12;;;;;;;11.60;10.67;;;;;;;24.65;65.27;98553.27;124677;1093;64275;-80
2021/07/30 04:31:40;;;;;;;12.10;10.93;;;;;;;24.94;64.39;98550.20;124752;1093;64289;-80
2021/07/30 04:34:08;;;;;;;11.50;10.30;;;;;;;25.06;63.81;98547.69;124709;1093;64220;-80
2021/07/30 04:36:35;;;;;;;12.45;11.30;;;;;;;25.35;63.58;98553.85;124696;1093;64290;-80
2021/07/30 04:39:02;;;;;;;11.97;10.77;;;;;;;25.58;62.60;98546.09;124792;1093;65431;-80
2021/07/30 04:41:30;;;;;;;11.53;10.40;;;;;;;25.86;61.74;98552.40;124764;1093;64375;-80
2021/07/30 04:43:57;;;;;;;11.95;10.80;;;;;;;25.89;61.35;98547.38;124773;1093;64371;-80
2021/07/30 04:46:24;;;;;;;11.43;10.27;;;;;;;26.09;60.14;98555.51;124790;1092;64308;-80
2021/07/30 04:48:52;;;;;;;11.27;10.27;;;;;;;26.39;60.29;98547.67;124648;1093;64330;-80
2021/07/30 04:51:19;;;;;;;11.27;10.37;;;;;;;26.63;59.49;98548.86;124781;1093;64271;-80
2021/07/30 04:53:49;;;;;;;11.93;10.93;;;;;;;26.82;58.86;98540.78;124798;1093;64293;-80
2021/07/30 04:56:20;;;;;;;11.23;10.23;;;;;;;27.03;57.88;98548.64;124808;1093;64274;-80
2021/07/30 04:58:47;;;;;;;11.77;10.60;;;;;;;27.18;58.14;98550.28;124790;1093;64222;-80
2021/07/30 05:01:15;;;;;;;12.57;11.07;;;;;;;27.40;57.59;98548.84;124841;1093;64297;-77
2021/07/30 05:03:42;;;;;;;12.20;10.90;;;;;;;27.55;56.83;98545.79;124790;1093;64217;-78
2021/07/30 05:06:19;;;;;;;11.67;10.47;;;;;;;27.74;56.63;98546.67;124785;1093;64278;-79
2021/07/30 05:08:47;;;;;;;10.97;9.97;;;;;;;27.79;55.45;98541.36;124795;1093;64277;-79
2021/07/30 05:11:15;;;;;;;11.47;10.47;;;;;;;27.78;55.29;98540.53;124798;1093;64294;-79
2021/07/30 05:13:43;;;;;;;9.90;9.10;;;;;;;27.86;55.23;98544.92;124746;1093;64284;-79
2021/07/30 05:16:13;;;;;;;10.33;9.27;;;;;;;27.94;54.89;98541.88;124802;1093;65515;-79
2021/07/30 05:18:41;;;;;;;10.50;9.50;;;;;;;28.05;54.68;98540.30;124781;1094;64760;-79
2021/07/30 05:21:14;;;;;;;9.07;8.17;;;;;;;28.20;53.88;98546.25;124842;1093;64291;-80
2021/07/30 05:23:43;;;;;;;8.93;8.00;;;;;;;28.31;53.17;98552.05;124843;1093;64475;-79
2021/07/30 05:26:11;;;;;;;9.50;8.60;;;;;;;28.10;52.35;98545.94;124718;1093;64693;-79
2021/07/30 05:28:38;;;;;;;9.97;8.73;;;;;;;28.17;52.01;98541.23;124821;1093;64287;-80
2021/07/30 05:31:06;;;;;;;9.70;8.73;;;;;;;28.06;52.71;98533.74;124618;1093;64364;-79
2021/07/30 05:33:33;;;;;;;9.20;8.30;;;;;;;27.93;52.88;98542.09;124614;1093;64293;-79
2021/07/30 05:36:00;;;;;;;9.27;8.47;;;;;;;27.44;52.68;98552.00;124679;1093;64357;-79
2021/07/30 05:38:27;;;;;;;10.30;9.07;;;;;;;26.87;53.82;98551.91;124699;1093;64274;-79
2021/07/30 05:40:54;;;;;;;9.87;8.97;;;;;;;26.43;54.17;98540.70;124663;1093;64274;-79
2021/07/30 05:43:21;;;;;;;10.13;9.23;;;;;;;26.22;54.96;98562.84;124689;1093;64393;-79
2021/07/30 05:45:48;;;;;;;10.37;9.40;;;;;;;26.26;55.13;98554.02;124629;1093;64294;-79
2021/07/30 05:48:16;;;;;;;10.37;9.37;;;;;;;26.77;54.43;98555.09;124671;1093;64421;-79
2021/07/30 05:50:48;;;;;;;10.97;9.67;;;;;;;27.06;53.79;98550.94;124714;1093;64353;-79
2021/07/30 05:53:15;;;;;;;9.97;9.03;;;;;;;27.04;54.00;98549.48;124696;1093;64214;-79
2021/07/30 05:55:42;;;;;;;9.97;9.03;;;;;;;27.36;53.51;98555.84;124676;1093;64280;-79
2021/07/30 05:58:09;;;;;;;9.50;8.63;;;;;;;27.56;53.32;98545.55;124737;1093;64398;-79
2021/07/30 06:00:37;;;;;;;10.17;9.17;;;;;;;27.67;52.88;98556.84;124665;1092;64430;-79
2021/07/30 06:03:04;;;;;;;12.83;8.87;;;;;;;27.88;52.94;98553.72;124612;1093;64351;-79
2021/07/30 06:05:31;;;;;;;11.63;8.87;;;;;;;27.77;52.18;98552.53;124704;1093;64698;-79
2021/07/30 06:07:59;;;;;;;9.97;8.37;;;;;;;27.49;52.21;98554.88;124651;1093;64217;-79
2021/07/30 06:10:26;;;;;;;9.10;8.20;;;;;;;27.65;51.60;98545.27;124693;1093;64299;-79
2021/07/30 06:12:54;;;;;;;10.60;8.55;;;;;;;27.58;51.37;98551.65;124712;1093;64274;-79
2021/07/30 06:15:23;;;;;;;10.90;8.93;;;;;;;27.69;51.62;98551.98;124681;1093;64304;-79
2021/07/30 06:17:52;;;;;;;11.50;9.15;;;;;;;27.86;51.58;98549.53;124693;1093;65477;-79
2021/07/30 06:20:20;;;;;;;9.93;8.93;;;;;;;27.93;50.85;98545.67;124677;1093;64274;-79
2021/07/30 06:22:47;;;;;;;9.47;8.53;;;;;;;27.92;51.08;98548.66;124675;1093;64425;-79
2021/07/30 06:25:14;;;;;;;9.40;8.45;;;;;;;28.14;51.41;98538.09;124700;1093;64450;-79
2021/07/30 06:27:42;;;;;;;9.73;8.53;;;;;;;28.28;51.46;98541.52;124680;1093;64217;-79
2021/07/30 06:30:10;;;;;;;9.40;8.57;;;;;;;28.35;51.55;98545.02;124768;1093;64274;-79
2021/07/30 06:32:40;;;;;;;11.03;7.80;;;;;;;28.41;51.17;98538.61;124652;1093;64316;-79
2021/07/30 06:35:09;;;;;;;11.20;8.33;;;;;;;28.41;51.01;98541.36;124780;1093;64261;-79
2021/07/30 06:37:37;;;;;;;8.07;7.27;;;;;;;28.56;50.79;98543.75;124706;1093;64287;-79
2021/07/30 06:40:05;;;;;;;9.65;8.05;;;;;;;28.65;50.52;98545.13;124805;1093;64309;-79
2021/07/30 06:42:34;;;;;;;10.30;7.80;;;;;;;28.62;50.38;98540.08;124671;1093;64350;-79
2021/07/30 06:45:03;;;;;;;8.30;7.47;;;;;;;28.69;49.94;98538.09;124623;1093;64270;-79
2021/07/30 06:47:32;;;;;;;;;;;;;;;28.79;50.31;98538.38;124857;1093;64586;-79
2021/07/30 06:49:59;;;;;;;10.00;8.63;;;;;;;28.97;50.65;98545.73;124830;1093;64244;-79
2021/07/30 06:52:26;;;;;;;8.73;7.83;;;;;;;29.22;50.03;98542.85;124672;1093;64350;-79
2021/07/30 06:54:54;;;;;;;9.00;8.00;;;;;;;29.32;49.98;98543.13;124787;1093;64287;-79
2021/07/30 06:57:21;;;;;;;7.70;6.93;;;;;;;29.37;49.29;98539.67;124700;1093;64300;-79
2021/07/30 06:59:49;;;;;;;6.43;5.83;;;;;;;29.39;48.79;98543.03;124797;1093;64296;-79
2021/07/30 07:02:17;;;;;;;8.43;5.90;;;;;;;29.46;48.09;98546.48;124678;1093;64207;-79
2021/07/30 07:04:44;;;;;;;6.73;5.27;;;;;;;29.20;47.89;98547.77;124801;1093;64223;-79
2021/07/30 07:07:11;;;;;;;9.03;5.83;;;;;;;29.17;47.61;98541.89;124648;1092;64290;-79
2021/07/30 07:09:38;;;;;;;7.57;5.50;;;;;;;29.20;47.01;98542.27;124767;1093;64210;-78
2021/07/30 07:12:05;;;;;;;6.55;5.70;;;;;;;28.99;47.72;98538.12;124660;1093;64348;-78
2021/07/30 07:14:33;;;;;;;7.10;5.87;;;;;;;28.88;47.74;98533.40;124690;1093;64437;-78
2021/07/30 07:17:00;;;;;;;7.93;6.70;;;;;;;28.53;48.63;98536.82;124803;1093;64226;-79
2021/07/30 07:19:27;;;;;;;8.45;6.60;;;;;;;28.23;48.50;98534.00;124706;1093;64248;-78
2021/07/30 07:21:54;;;;;;;13.33;6.23;;;;;;;28.26;49.28;98524.48;124815;1093;64268;-78
2021/07/30 07:24:22;;;;;;;6.10;5.60;;;;;;;28.37;48.44;98534.67;124644;1093;64496;-78
2021/07/30 07:26:49;;;;;;;7.20;6.50;;;;;;;28.31;48.75;98541.91;124718;1093;64303;-78
2021/07/30 07:29:16;;;;;;;6.87;6.10;;;;;;;28.35;48.58;98537.63;124803;1093;64310;-78
2021/07/30 07:31:45;;;;;;;8.87;6.23;;;;;;;28.43;48.95;98531.00;124662;1093;64370;-78
2021/07/30 07:34:12;;;;;;;9.55;6.50;;;;;;;28.36;48.86;98525.63;124755;1093;64306;-78
2021/07/30 07:36:40;;;;;;;8.00;6.15;;;;;;;28.26;49.04;98536.27;124664;1093;64328;-78
2021/07/30 07:39:07;;;;;;;8.17;6.73;;;;;;;28.37;49.24;98524.55;124845;1093;64291;-78
2021/07/30 07:41:35;;;;;;;14.93;8.77;;;;;;;28.41;49.26;98525.77;124652;1093;64291;-78
2021/07/30 07:44:02;;;;;;;10.13;6.77;;;;;;;28.27;48.11;98518.75;124681;1093;64284;-79
2021/07/30 07:46:30;;;;;;;8.00;7.00;;;;;;;28.06;49.28;98521.95;124642;1093;64358;-79
2021/07/30 07:48:59;;;;;;;9.20;6.40;;;;;;;28.01;48.40;98522.63;124781;1093;64290;-79
2021/07/30 07:51:26;;;;;;;6.98;6.28;;;;;;;27.71;47.33;98525.22;124623;1093;64411;-78
2021/07/30 07:53:53;;;;;;;6.70;6.10;;;;;;;27.53;48.03;98521.37;124786;1093;64279;-79
2021/07/30 07:56:20;;;;;;;5.87;5.33;;;;;;;27.46;48.41;98525.22;124698;1093;64288;-79
2021/07/30 07:58:47;;;;;;;14.60;6.50;;;;;;;27.24;48.58;98530.23;124780;1093;64300;-79
2021/07/30 08:01:16;;;;;;;6.33;5.73;;;;;;;27.09;49.34;98533.24;124641;1093;64395;-78
2021/07/30 08:03:44;;;;;;;6.57;5.97;;;;;;;27.02;48.60;98532.47;124830;1093;64326;-79
2021/07/30 08:06:22;;;;;;;6.60;5.87;;;;;;;26.95;49.67;98528.93;124706;1093;64290;-78
2021/07/30 08:08:50;;;;;;;5.70;5.20;;;;;;;27.06;49.59;98536.42;124840;1093;64303;-78
2021/07/30 08:11:17;;;;;;;6.30;5.70;;;;;;;27.18;49.93;98539.34;124728;1093;64274;-78
2021/07/30 08:13:45;;;;;;;7.73;6.10;;;;;;;27.29;50.54;98533.15;124800;1093;64248;-79
2021/07/30 08:16:12;;;;;;;5.83;5.23;;;;;;;27.26;49.52;98531.70;124687;1093;64380;-78
2021/07/30 08:18:39;;;;;;;6.65;5.05;;;;;;;27.21;49.41;98526.05;124815;1093;64273;-78
2021/07/30 08:21:07;;;;;;;6.73;5.47;;;;;;;27.41;49.07;98525.91;124667;1093;64373;-78
2021/07/30 08:23:34;;;;;;;5.70;5.20;;;;;;;27.53;48.99;98526.01;124599;1093;64287;-79
2021/07/30 08:26:01;;;;;;;5.47;4.93;;;;;;;27.55;48.80;98524.72;124666;1093;64275;-78
2021/07/30 08:28:28;;;;;;;6.40;5.80;;;;;;;27.52;48.50;98519.70;124814;1093;64311;-78
2021/07/30 08:30:55;;;;;;;7.93;5.83;;;;;;;27.42;48.44;98519.36;124664;1092;64319;-78
2021/07/30 08:33:22;;;;;;;5.40;4.90;;;;;;;27.32;48.17;98517.12;124768;1093;64197;-78
2021/07/30 08:35:50;;;;;;;6.90;5.47;;;;;;;27.42;48.62;98508.42;124729;1093;64296;-78
2021/07/30 08:38:17;;;;;;;6.37;5.40;;;;;;;27.61;48.89;98513.94;124801;1093;64315;-79
2021/07/30 08:40:44;;;;;;;6.50;4.90;;;;;;;27.73;49.07;98507.51;124703;1093;64751;-83
2021/07/30 08:43:16;;;;;;;5.65;4.85;;;;;;;27.88;49.30;98503.59;124878;1092;64274;-77
2021/07/30 08:45:51;;;;;;;5.50;5.10;;;;;;;27.85;49.06;98510.36;124679;1093;64332;-88
2021/07/30 08:48:19;;;;;;;7.63;5.50;;;;;;;27.77;48.34;98508.72;124808;1093;64329;-79
2021/07/30 08:50:47;;;;;;;5.40;5.00;;;;;;;27.85;49.35;98504.88;124674;1093;64271;-79
2021/07/30 08:53:26;;;;;;;5.93;5.43;;;;;;;27.95;49.61;98504.37;124671;1092;64374;-79
2021/07/30 08:55:53;;;;;;;5.47;4.83;;;;;;;28.02;49.13;98499.66;124682;1093;64613;-79
2021/07/30 08:58:21;;;;;;;6.23;5.50;;;;;;;28.06;49.00;98492.65;124706;1093;64316;-79
2021/07/30 09:00:49;;;;;;;7.67;5.90;;;;;;;28.11;48.70;98491.97;124674;1093;64290;-79
2021/07/30 09:03:16;;;;;;;6.10;5.60;;;;;;;28.13;48.52;98487.94;124704;1093;64294;-79
2021/07/30 09:05:44;;;;;;;6.53;5.47;;;;;;;28.20;49.18;98485.97;124722;1093;64343;-79
2021/07/30 09:08:24;;;;;;;6.93;5.20;;;;;;;28.20;48.00;98485.11;124766;1093;64319;-79
2021/07/30 09:10:51;;;;;;;7.08;5.53;;;;;;;28.17;48.52;98485.56;124799;1093;64297;-79
2021/07/30 09:13:27;;;;;;;5.97;5.37;;;;;;;28.17;48.09;98483.69;124706;1093;64271;-79
2021/07/30 09:16:07;;;;;;;11.30;6.40;;;;;;;28.12;48.15;98479.94;124779;1093;64344;-79
2021/07/30 09:18:44;;;;;;;7.27;5.13;;;;;;;28.11;48.09;98481.02;124706;1093;64248;-79
2021/07/30 09:21:24;;;;;;;5.50;4.90;;;;;;;28.04;48.36;98467.38;124696;1093;64319;-79
2021/07/30 09:24:01;;;;;;;6.17;5.37;;;;;;;28.08;48.21;98473.26;124699;1093;64271;-79
2021/07/30 09:26:31;;;;;;;9.53;5.10;;;;;;;28.20;48.20;98469.53;124645;1093;64254;-79
2021/07/30 09:29:03;;;;;;;6.03;5.43;;;;;;;28.25;47.03;98468.81;124686;1093;64385;-79
2021/07/30 09:31:41;;;;;;;5.90;5.23;;;;;;;28.06;46.74;98465.25;124720;1092;64342;-79
2021/07/30 09:34:17;;;;;;;7.70;5.70;;;;;;;27.94;47.29;98461.63;124714;1093;64276;-79
2021/07/30 09:36:56;;;;;;;7.07;5.80;;;;;;;28.07;47.93;98461.47;124697;1093;64348;-79
2021/07/30 09:39:50;;;;;;;5.43;4.93;;;;;;;28.21;48.52;98453.92;124673;1093;64303;-79
2021/07/30 09:42:35;;;;;;;5.37;4.87;;;;;;;28.36;48.59;98445.30;124787;1093;64293;-79
2021/07/30 09:45:08;;;;;;;5.70;5.10;;;;;;;28.45;47.61;98463.13;124749;1093;64318;-79
2021/07/30 09:47:52;;;;;;;6.00;4.83;;;;;;;28.52;47.35;98443.86;124767;1093;64219;-79
2021/07/30 09:50:20;;;;;;;6.23;5.00;;;;;;;28.44;47.19;98442.27;124707;1093;64274;-79
2021/07/30 09:52:51;;;;;;;5.10;4.70;;;;;;;28.47;46.72;98446.45;124703;1093;64274;-80
2021/07/30 09:55:21;;;;;;;5.10;4.60;;;;;;;28.46;45.92;98440.11;124711;1093;64322;-79
2021/07/30 09:57:51;;;;;;;5.50;5.00;;;;;;;28.48;46.62;98437.15;124769;1093;64290;-79
2021/07/30 10:00:20;;;;;;;6.03;5.00;;;;;;;28.52;46.55;98435.63;124882;1093;64489;-79
2021/07/30 10:02:48;;;;;;;5.68;4.80;;;;;;;28.51;46.17;98434.77;124717;1092;64364;-79
2021/07/30 10:05:20;;;;;;;6.40;4.73;;;;;;;28.51;45.77;98422.98;124659;1093;64338;-79
2021/07/30 10:07:47;;;;;;;4.90;4.50;;;;;;;28.60;45.90;98416.11;124702;1093;64389;-79
2021/07/30 10:10:33;;;;;;;6.37;5.30;;;;;;;28.64;45.27;98409.90;124645;1092;64428;-78
2021/07/30 10:13:05;;;;;;;7.90;4.83;;;;;;;28.66;46.24;98412.42;124765;1093;64277;-79
2021/07/30 10:15:33;;;;;;;5.03;4.53;;;;;;;28.77;46.11;98405.30;124719;1093;64287;-78
2021/07/30 10:18:05;;;;;;;6.23;5.20;;;;;;;28.80;45.76;98402.08;124792;1093;64294;-76
2021/07/30 10:20:34;;;;;;;4.90;4.60;;;;;;;28.81;44.82;98396.38;124582;1093;64261;-76
2021/07/30 10:23:03;;;;;;;5.30;4.80;;;;;;;28.73;45.22;98404.11;124750;1093;64316;-76
2021/07/30 10:25:43;;;;;;;5.10;4.70;;;;;;;28.78;45.57;98394.11;124713;1093;64373;-76
2021/07/30 10:28:19;;;;;;;6.63;5.03;;;;;;;28.82;44.94;98394.46;124701;1093;64315;-77
2021/07/30 10:30:53;;;;;;;5.70;4.60;;;;;;;28.86;45.30;98398.41;124662;1093;64320;-76
2021/07/30 10:33:36;;;;;;;4.93;4.53;;;;;;;28.84;44.67;98390.41;124672;1093;64389;-76
2021/07/30 10:36:05;;;;;;;6.47;4.67;;;;;;;28.83;43.88;98385.14;124653;1093;64223;-77
2021/07/30 10:38:33;;;;;;;5.47;4.97;;;;;;;28.83;44.12;98374.17;124708;1093;64248;-77
2021/07/30 10:41:07;;;;;;;6.53;5.60;;;;;;;28.84;44.24;98381.35;124733;1093;64272;-77
2021/07/30 10:43:50;;;;;;;7.37;4.43;;;;;;;28.88;44.45;98371.56;124718;1093;64310;-77
2021/07/30 10:46:18;;;;;;;4.97;4.57;;;;;;;28.94;44.93;98375.27;124784;1093;64201;-76
2021/07/30 10:48:47;;;;;;;4.80;4.40;;;;;;;28.97;44.29;98364.67;124674;1093;64310;-77
2021/07/30 10:51:27;;;;;;;5.23;4.80;;;;;;;29.03;43.53;98365.63;124715;1093;64322;-77
2021/07/30 10:54:04;;;;;;;4.90;4.50;;;;;;;28.98;44.29;98360.02;124639;1093;64272;-76
2021/07/30 10:56:31;;;;;;;5.03;4.47;;;;;;;28.97;43.92;98355.61;124638;1093;64277;-76
2021/07/30 10:58:58;;;;;;;8.53;4.50;;;;;;;28.99;44.39;98354.30;124634;1093;64298;-77
2021/07/30 11:01:28;;;;;;;5.70;4.53;;;;;;;29.00;43.62;98353.22;124709;1093;64360;-77
2021/07/30 11:03:58;;;;;;;5.40;5.00;;;;;;;29.07;44.26;98353.15;124687;1093;64297;-76
2021/07/30 11:06:28;;;;;;;4.43;4.13;;;;;;;29.10;42.27;98355.41;124734;1093;64293;-76
2021/07/30 11:09:05;;;;;;;6.00;4.45;;;;;;;29.06;44.12;98346.80;124727;1093;64271;-77
2021/07/30 11:11:36;;;;;;;4.93;4.07;;;;;;;29.15;43.16;98346.44;124735;1093;64303;-76
2021/07/30 11:14:08;;;;;;;6.50;4.23;;;;;;;29.14;42.74;98348.36;124748;1093;64341;-77
2021/07/30 11:16:35;;;;;;;4.73;4.40;;;;;;;29.17;43.51;98345.13;124772;1092;64654;-77
2021/07/30 11:19:04;;;;;;;4.77;4.37;;;;;;;29.30;44.13;98338.56;124673;1093;64300;-77
2021/07/30 11:21:32;;;;;;;5.20;4.70;;;;;;;29.36;41.56;98345.86;124714;1093;64274;-77
2021/07/30 11:24:01;;;;;;;5.63;4.10;;;;;;;29.25;42.21;98343.94;124688;1093;64287;-76
2021/07/30 11:26:29;;;;;;;5.57;4.40;;;;;;;29.23;42.95;98338.70;124793;1093;64198;-77